Terminal Aerodrome Forecast
Issued by NWS Greer, SC

Home | Current Version | Previous Version | Text Only | Print | Product List | Glossary On
Versions: 1 2 3 4 5 6 7 8 9 10 11 12 13 14 15 16 17 18 19 20 21 22 23 24 25 26 27 28 29 30 31 32 33 34 35 36 37
000
FTUS42 KGSP 291120
TAFAVL
TAF
KAVL 291120Z 2912/3012 18003KT P6SM SCT250
     FM291600 18006G14KT P6SM SCT050 BKN230
     FM300200 22005G13KT P6SM BKN050
     FM300500 32010G17KT P6SM BKN050
     FM300700 33013G21KT P6SM BKN025=

USA.gov is the U.S. government's official web portal to all federal, state and local government web resources and services.